Time;durP1;ratioP1;P1;durP2;ratioP2;P2;SDS_P1;SDS_P2;PMS_P1;PMS_P2;Temp;Humidity;BMP_temperature;BMP_pressure;BME280_temperature;BME280_humidity;BME280_pressure;Samples;Min_cycle;Max_cycle;Signal;HPM_P1;HPM_P2
2022/07/22 00:00:44;;;;;;;7.05;5.28;;;;;;;26.70;50.52;101342.63;5028686;27;96963;-70
2022/07/22 00:03:11;;;;;;;5.60;4.50;;;;;;;26.53;50.28;101333.34;5028434;27;102257;-71
2022/07/22 00:05:38;;;;;;;5.28;4.68;;;;;;;26.63;50.44;101337.91;5019277;27;99203;-69
2022/07/22 00:08:05;;;;;;;6.60;5.13;;;;;;;26.56;49.95;101343.91;5022061;27;97140;-72
2022/07/22 00:10:31;;;;;;;7.55;4.85;;;;;;;26.48;49.96;101343.75;5024394;27;97559;-72
2022/07/22 00:12:58;;;;;;;5.60;5.03;;;;;;;26.44;49.65;101338.78;5023607;27;97889;-69
2022/07/22 00:15:24;;;;;;;6.68;4.88;;;;;;;26.41;49.59;101348.03;5022795;27;99015;-70
2022/07/22 00:17:51;;;;;;;5.45;4.05;;;;;;;26.45;49.58;101357.59;5022376;27;97713;-70
2022/07/22 00:20:19;;;;;;;5.85;4.13;;;;;;;26.47;49.01;101354.75;5023830;28;96833;-70
2022/07/22 00:22:46;;;;;;;5.00;4.40;;;;;;;26.38;49.63;101356.47;5023699;27;98865;-70
2022/07/22 00:25:13;;;;;;;6.15;4.13;;;;;;;26.32;49.50;101354.28;5023586;27;98870;-70
2022/07/22 00:27:39;;;;;;;4.88;4.38;;;;;;;26.35;49.68;101359.44;5023598;27;96719;-70
2022/07/22 00:30:07;;;;;;;7.55;4.57;;;;;;;26.56;49.17;101354.75;5025900;27;97550;-71
2022/07/22 00:32:33;;;;;;;6.13;4.15;;;;;;;26.23;49.75;101355.13;5026859;27;99421;-70
2022/07/22 00:34:59;;;;;;;6.40;4.78;;;;;;;26.31;49.82;101359.88;5024698;27;99066;-71
2022/07/22 00:37:26;;;;;;;5.78;4.50;;;;;;;26.19;50.41;101362.66;5026689;27;98290;-71
2022/07/22 00:39:54;;;;;;;4.80;4.28;;;;;;;26.23;50.19;101362.41;5023681;27;97939;-71
2022/07/22 00:42:20;;;;;;;6.97;4.45;;;;;;;26.32;49.98;101356.19;5019400;27;99482;-71
2022/07/22 00:44:46;;;;;;;5.38;4.50;;;;;;;26.26;50.05;101367.53;5017688;27;101044;-71
2022/07/22 00:47:13;;;;;;;6.53;4.47;;;;;;;26.28;50.14;101369.13;5018266;27;99053;-70
2022/07/22 00:49:39;;;;;;;7.43;4.85;;;;;;;26.26;50.59;101367.53;5031833;27;96829;-70
2022/07/22 00:52:06;;;;;;;6.55;4.72;;;;;;;26.26;50.66;101378.38;5018639;27;98290;-71
2022/07/22 00:54:33;;;;;;;8.20;5.07;;;;;;;26.41;50.10;101379.69;5023188;27;98995;-70
2022/07/22 00:57:01;;;;;;;5.07;4.57;;;;;;;25.96;50.70;101377.44;5016804;27;97714;-70
2022/07/22 00:59:28;;;;;;;5.55;4.38;;;;;;;26.17;50.42;101369.22;5023649;27;97203;-71
2022/07/22 01:01:54;;;;;;;7.95;4.10;;;;;;;26.21;50.30;101370.66;5020993;27;98901;-71
2022/07/22 01:04:21;;;;;;;6.47;3.90;;;;;;;26.07;50.40;101373.75;5026168;27;98805;-70
2022/07/22 01:06:47;;;;;;;4.22;3.88;;;;;;;26.01;50.47;101375.19;5019613;27;96809;-70
2022/07/22 01:09:14;;;;;;;6.03;3.72;;;;;;;26.08;50.18;101370.91;5023910;27;96808;-69
2022/07/22 01:11:41;;;;;;;6.57;4.20;;;;;;;25.79;50.91;101365.44;5024468;27;99470;-70
2022/07/22 01:14:09;;;;;;;4.28;3.70;;;;;;;25.86;50.67;101364.88;5027547;27;99104;-68
2022/07/22 01:16:36;;;;;;;5.00;3.80;;;;;;;25.82;50.55;101374.25;5018267;27;97131;-70
2022/07/22 01:19:03;;;;;;;3.78;3.47;;;;;;;26.05;49.95;101365.78;5024036;27;96801;-70
2022/07/22 01:21:30;;;;;;;5.65;3.70;;;;;;;25.94;50.59;101367.75;5023000;27;99021;-69
2022/07/22 01:23:57;;;;;;;5.43;3.60;;;;;;;25.83;50.56;101374.13;5026413;27;98771;-69
2022/07/22 01:26:23;;;;;;;5.50;3.53;;;;;;;25.81;50.75;101373.41;5021286;27;96860;-69
2022/07/22 01:28:49;;;;;;;6.20;3.80;;;;;;;25.60;51.39;101370.75;5024481;27;97066;-70
2022/07/22 01:31:16;;;;;;;4.50;3.40;;;;;;;25.51;51.52;101370.69;5024127;27;98565;-70
2022/07/22 01:33:42;;;;;;;5.65;3.72;;;;;;;25.50;51.73;101364.44;5025496;28;98912;-70
2022/07/22 01:36:09;;;;;;;3.70;3.40;;;;;;;25.63;51.63;101365.09;5026860;28;97519;-69
2022/07/22 01:38:37;;;;;;;6.05;3.83;;;;;;;25.49;51.82;101359.13;5026572;27;97210;-70
2022/07/22 01:41:03;;;;;;;5.65;3.30;;;;;;;25.48;51.88;101361.00;5026156;27;98919;-69
2022/07/22 01:43:30;;;;;;;4.25;3.85;;;;;;;25.50;51.98;101363.56;5028521;28;97727;-70
2022/07/22 01:45:56;;;;;;;8.15;3.80;;;;;;;25.35;52.17;101365.75;5024016;27;96807;-70
2022/07/22 01:48:23;;;;;;;5.05;3.50;;;;;;;25.34;52.42;101372.16;5022735;28;97200;-70
2022/07/22 01:50:50;;;;;;;4.68;3.47;;;;;;;25.22;52.75;101370.53;5016054;28;99243;-69
2022/07/22 01:53:17;;;;;;;4.40;4.00;;;;;;;25.19;52.87;101362.72;5029665;27;98923;-70
2022/07/22 01:55:45;;;;;;;4.32;3.67;;;;;;;25.25;52.58;101371.13;5019956;27;97989;-70
2022/07/22 01:58:11;;;;;;;3.97;3.53;;;;;;;25.23;52.84;101364.13;5026296;27;97351;-70
2022/07/22 02:00:38;;;;;;;3.58;3.28;;;;;;;25.24;52.86;101368.56;5026562;27;99588;-69
2022/07/22 02:03:05;;;;;;;7.93;3.90;;;;;;;25.34;52.75;101374.88;5021902;27;98464;-70
2022/07/22 02:05:32;;;;;;;4.43;3.65;;;;;;;25.16;53.05;101365.66;5021529;27;97979;-69
2022/07/22 02:08:01;;;;;;;5.70;3.78;;;;;;;25.07;53.31;101371.88;5027504;27;96824;-68
2022/07/22 02:10:27;;;;;;;7.60;4.75;;;;;;;25.28;52.78;101375.41;5025463;27;99329;-69
2022/07/22 02:12:55;;;;;;;4.60;3.75;;;;;;;25.00;53.62;101372.41;5024651;27;102659;-70
2022/07/22 02:15:21;;;;;;;6.43;3.38;;;;;;;25.10;53.48;101374.31;5021617;27;96948;-68
2022/07/22 02:17:48;;;;;;;4.03;3.63;;;;;;;25.10;53.56;101377.00;5022543;27;97340;-69
2022/07/22 02:20:14;;;;;;;5.82;4.28;;;;;;;25.12;53.54;101380.44;5027196;27;98966;-69
2022/07/22 02:22:41;;;;;;;5.45;4.13;;;;;;;25.15;53.62;101377.47;5024517;28;101708;-70
2022/07/22 02:25:08;;;;;;;4.53;3.80;;;;;;;25.07;53.64;101377.28;5021490;27;97066;-70
2022/07/22 02:27:35;;;;;;;5.85;4.07;;;;;;;24.89;54.13;101385.97;5024570;27;98353;-70
2022/07/22 02:30:04;;;;;;;7.07;4.20;;;;;;;24.82;54.47;101382.03;5020116;27;99292;-69
2022/07/22 02:32:30;;;;;;;7.05;4.05;;;;;;;24.76;54.84;101377.16;5018848;27;98956;-70
2022/07/22 02:34:56;;;;;;;8.55;4.43;;;;;;;24.87;54.40;101382.53;5023057;28;97182;-70
2022/07/22 02:37:24;;;;;;;5.00;4.50;;;;;;;24.89;54.24;101385.97;5017777;28;97573;-71
2022/07/22 02:39:50;;;;;;;6.53;4.22;;;;;;;24.81;54.96;101382.19;5026345;28;97649;-70
2022/07/22 02:42:17;;;;;;;5.40;4.63;;;;;;;24.63;55.38;101381.91;5022742;27;98793;-70
2022/07/22 02:44:43;;;;;;;5.72;4.55;;;;;;;24.74;55.28;101389.13;5022655;27;98402;-69
2022/07/22 02:47:11;;;;;;;5.65;5.03;;;;;;;24.59;55.63;101391.25;5017180;27;96828;-70
2022/07/22 02:49:37;;;;;;;6.20;4.78;;;;;;;24.43;55.92;101394.38;5021956;27;98963;-69
2022/07/22 02:52:04;;;;;;;8.02;4.97;;;;;;;24.48;56.05;101386.72;5023837;28;101282;-69
2022/07/22 02:54:30;;;;;;;5.85;4.35;;;;;;;24.70;55.37;101391.19;5023709;27;97188;-70
2022/07/22 02:56:56;;;;;;;5.50;4.72;;;;;;;24.80;55.00;101394.00;5024430;27;98468;-69
2022/07/22 02:59:23;;;;;;;5.93;4.70;;;;;;;24.92;54.71;101387.56;5025993;27;99061;-70
2022/07/22 03:01:49;;;;;;;5.32;4.82;;;;;;;25.02;54.14;101394.75;5017740;27;98910;-70
2022/07/22 03:04:17;;;;;;;7.40;4.68;;;;;;;24.97;54.65;101388.88;5025375;27;97432;-71
2022/07/22 03:06:43;;;;;;;8.13;5.35;;;;;;;24.90;54.61;101387.69;5016754;27;98841;-69
2022/07/22 03:09:09;;;;;;;6.53;5.47;;;;;;;24.39;55.94;101392.06;5023010;27;99400;-69
2022/07/22 03:11:36;;;;;;;5.78;5.25;;;;;;;24.45;56.20;101391.56;5020082;27;99133;-70
2022/07/22 03:14:02;;;;;;;6.35;5.57;;;;;;;24.80;55.28;101386.75;5022321;27;96965;-70
2022/07/22 03:16:29;;;;;;;9.07;5.38;;;;;;;24.68;55.09;101390.47;5023494;27;98952;-70
2022/07/22 03:18:55;;;;;;;6.72;5.93;;;;;;;24.67;55.46;101386.06;5022061;28;98886;-70
2022/07/22 03:21:23;;;;;;;7.50;5.95;;;;;;;24.74;54.94;101387.28;5019444;28;98840;-69
2022/07/22 03:23:53;;;;;;;7.40;5.90;;;;;;;24.51;55.73;101385.63;5021733;27;97268;-69
2022/07/22 03:26:19;;;;;;;9.13;6.35;;;;;;;24.81;54.97;101384.91;5021027;27;97462;-69
2022/07/22 03:28:46;;;;;;;7.47;5.80;;;;;;;24.61;55.28;101392.00;5023604;27;100073;-69
2022/07/22 03:31:12;;;;;;;6.97;5.95;;;;;;;24.65;55.48;101387.19;5022581;27;97840;-69
2022/07/22 03:33:38;;;;;;;8.75;5.80;;;;;;;24.56;55.88;101388.78;5017479;28;97775;-71
2022/07/22 03:36:06;;;;;;;10.95;6.32;;;;;;;24.55;55.59;101396.03;5026860;27;96909;-69
2022/07/22 03:38:34;;;;;;;7.40;6.70;;;;;;;24.52;56.00;101392.75;5022090;27;99262;-68
2022/07/22 03:41:01;;;;;;;6.85;6.15;;;;;;;24.52;56.15;101396.31;5025618;27;102281;-70
2022/07/22 03:43:27;;;;;;;8.20;6.15;;;;;;;24.70;55.26;101401.16;5023807;28;98825;-70
2022/07/22 03:45:54;;;;;;;7.18;6.47;;;;;;;24.78;54.91;101406.78;5025703;27;97167;-69
2022/07/22 03:48:20;;;;;;;8.80;6.97;;;;;;;24.55;55.72;101404.16;5020133;27;99094;-69
2022/07/22 03:50:46;;;;;;;9.10;6.03;;;;;;;24.57;55.65;101399.47;5022299;27;98751;-69
2022/07/22 03:53:13;;;;;;;7.82;6.10;;;;;;;24.71;55.47;101403.72;5020664;28;97483;-69
2022/07/22 03:55:40;;;;;;;7.40;6.68;;;;;;;24.75;55.15;101410.56;5020888;27;96978;-70
2022/07/22 03:58:07;;;;;;;8.65;7.40;;;;;;;24.64;55.72;101405.22;5025726;27;98728;-69
2022/07/22 04:00:33;;;;;;;8.75;6.25;;;;;;;24.75;55.52;101402.47;5019891;27;99775;-70
2022/07/22 04:03:00;;;;;;;9.98;6.93;;;;;;;24.62;55.87;101405.34;5020695;27;96816;-70
2022/07/22 04:05:26;;;;;;;9.73;6.60;;;;;;;24.74;55.28;101411.59;5019506;27;97260;-69
2022/07/22 04:07:52;;;;;;;7.55;6.75;;;;;;;24.53;56.08;101405.28;5020920;27;99285;-70
2022/07/22 04:10:19;;;;;;;8.25;6.95;;;;;;;24.72;55.55;101412.69;5021295;27;99165;-70
2022/07/22 04:12:46;;;;;;;7.85;7.07;;;;;;;24.40;56.08;101412.69;5024085;27;97639;-69
2022/07/22 04:15:13;;;;;;;9.43;7.05;;;;;;;24.61;55.98;101416.31;5028454;27;97215;-69
2022/07/22 04:17:39;;;;;;;8.43;7.43;;;;;;;24.34;56.44;101413.19;5026676;28;99045;-69
2022/07/22 04:20:07;;;;;;;7.65;6.95;;;;;;;24.29;56.68;101405.47;5026066;27;99154;-71
2022/07/22 04:22:33;;;;;;;7.80;6.95;;;;;;;24.48;56.14;101418.31;5026795;27;96871;-71
2022/07/22 04:25:00;;;;;;;11.40;8.43;;;;;;;24.48;55.79;101421.03;5026950;28;98614;-71
2022/07/22 04:27:26;;;;;;;10.05;8.20;;;;;;;24.36;56.37;101412.06;5027155;27;99177;-71
2022/07/22 04:29:54;;;;;;;8.75;7.85;;;;;;;24.56;55.93;101415.81;5027462;27;99118;-70
2022/07/22 04:32:21;;;;;;;9.02;7.78;;;;;;;24.81;54.81;101410.06;5018922;27;97051;-70
2022/07/22 04:34:47;;;;;;;9.82;8.30;;;;;;;24.56;55.81;101413.13;5025201;27;96904;-69
2022/07/22 04:37:13;;;;;;;9.52;7.88;;;;;;;24.79;55.33;101412.06;5018693;27;99175;-70
2022/07/22 04:39:40;;;;;;;9.38;8.07;;;;;;;25.05;54.41;101417.13;5026698;27;98884;-70
2022/07/22 04:42:06;;;;;;;13.23;9.45;;;;;;;25.02;54.19;101420.94;5026370;27;97306;-70
2022/07/22 04:44:33;;;;;;;9.73;8.02;;;;;;;25.12;53.62;101424.56;5027373;27;98960;-70
2022/07/22 04:47:01;;;;;;;13.93;8.27;;;;;;;25.19;53.25;101425.75;5022418;27;99040;-72
2022/07/22 04:49:27;;;;;;;8.75;7.85;;;;;;;24.97;53.87;101424.03;5026517;27;98890;-69
2022/07/22 04:51:53;;;;;;;9.85;7.65;;;;;;;25.23;53.75;101420.94;5020315;27;97244;-70
2022/07/22 04:54:20;;;;;;;15.27;9.05;;;;;;;24.96;54.07;101430.41;5028510;27;96919;-70
2022/07/22 04:56:47;;;;;;;14.27;8.38;;;;;;;24.98;53.64;101425.75;5021378;27;99077;-70
2022/07/22 04:59:13;;;;;;;10.10;8.18;;;;;;;25.00;53.99;101431.91;5027087;27;98951;-70
2022/07/22 05:01:39;;;;;;;11.68;8.88;;;;;;;24.53;55.46;101432.31;5019038;27;97407;-69
2022/07/22 05:04:07;;;;;;;11.52;8.38;;;;;;;24.58;55.08;101430.06;5020300;27;99388;-69
2022/07/22 05:06:34;;;;;;;11.27;9.00;;;;;;;24.60;55.06;101428.09;5015701;27;98944;-69
2022/07/22 05:09:00;;;;;;;10.13;8.70;;;;;;;24.96;54.13;101422.31;5022688;27;99520;-69
2022/07/22 05:11:26;;;;;;;14.98;8.80;;;;;;;24.77;54.44;101424.84;5021491;27;99655;-69
2022/07/22 05:13:53;;;;;;;10.63;8.25;;;;;;;25.10;53.71;101422.97;5023952;27;98380;-69
2022/07/22 05:16:19;;;;;;;11.68;8.73;;;;;;;25.26;53.06;101421.53;5015292;27;98864;-69
2022/07/22 05:18:46;;;;;;;11.13;9.57;;;;;;;24.84;53.59;101423.31;5029101;27;99073;-70
2022/07/22 05:21:13;;;;;;;10.98;9.63;;;;;;;24.83;54.07;101429.72;5016222;27;97752;-70
2022/07/22 05:23:40;;;;;;;9.23;8.30;;;;;;;24.78;54.25;101431.97;5015880;27;97623;-72
2022/07/22 05:26:06;;;;;;;11.25;8.95;;;;;;;24.93;53.78;101422.59;5025492;27;99182;-70
2022/07/22 05:28:33;;;;;;;11.68;9.20;;;;;;;24.82;53.76;101428.00;5025953;27;98803;-70
2022/07/22 05:30:59;;;;;;;10.05;9.00;;;;;;;24.74;54.21;101430.50;5024397;27;96789;-70
2022/07/22 05:33:26;;;;;;;14.38;9.70;;;;;;;24.41;55.53;101425.22;5023215;27;97493;-69
2022/07/22 05:35:53;;;;;;;10.18;8.63;;;;;;;24.61;54.81;101435.22;5025359;27;99383;-70
2022/07/22 05:38:21;;;;;;;8.55;7.70;;;;;;;24.85;54.21;101435.00;5021760;27;98830;-70
2022/07/22 05:40:47;;;;;;;11.48;8.52;;;;;;;25.10;53.65;101437.34;5027784;27;96946;-69
2022/07/22 05:43:13;;;;;;;10.05;8.98;;;;;;;25.17;53.15;101438.56;5022747;27;96991;-68
2022/07/22 05:45:40;;;;;;;15.18;8.77;;;;;;;25.11;53.47;101438.22;5022391;28;98753;-69
2022/07/22 05:48:06;;;;;;;9.50;8.43;;;;;;;25.16;53.24;101434.13;5026682;27;99024;-68
2022/07/22 05:50:33;;;;;;;10.68;9.35;;;;;;;25.15;53.10;101440.53;5026505;27;97966;-69
2022/07/22 05:52:59;;;;;;;16.55;8.90;;;;;;;25.42;52.47;101440.00;5028438;27;98495;-70
2022/07/22 05:55:27;;;;;;;19.58;9.27;;;;;;;25.40;52.29;101442.00;5020769;27;99349;-69
2022/07/22 05:57:53;;;;;;;11.73;8.45;;;;;;;25.51;52.08;101441.91;5027454;27;99985;-69
2022/07/22 06:00:20;;;;;;;11.00;8.52;;;;;;;25.64;51.61;101433.59;5027215;27;97107;-70
2022/07/22 06:02:46;;;;;;;12.27;8.30;;;;;;;25.93;50.87;101433.75;5023058;27;98469;-69
2022/07/22 06:05:12;;;;;;;10.55;8.63;;;;;;;25.76;51.15;101441.50;5024286;27;99373;-69
2022/07/22 06:07:39;;;;;;;10.52;8.02;;;;;;;25.99;50.67;101428.59;5025212;27;98955;-69
2022/07/22 06:10:06;;;;;;;11.10;9.20;;;;;;;25.61;51.80;101441.97;5027842;27;96809;-69
2022/07/22 06:12:33;;;;;;;9.15;7.82;;;;;;;25.91;51.06;101443.84;5017344;27;96896;-70
2022/07/22 06:15:00;;;;;;;12.00;7.95;;;;;;;25.96;50.71;101442.44;5019666;27;97679;-70
2022/07/22 06:17:26;;;;;;;8.27;7.43;;;;;;;26.03;50.85;101437.31;5025901;27;98910;-70
2022/07/22 06:19:53;;;;;;;13.50;8.25;;;;;;;26.28;50.07;101444.97;5020657;27;98370;-69
2022/07/22 06:22:19;;;;;;;14.57;9.73;;;;;;;25.56;51.19;101450.47;5026987;27;97006;-70
2022/07/22 06:24:46;;;;;;;10.23;9.13;;;;;;;25.64;51.26;101448.00;5024785;27;99082;-71
2022/07/22 06:27:12;;;;;;;11.00;9.00;;;;;;;25.47;51.86;101453.97;5019429;27;98980;-69
2022/07/22 06:29:40;;;;;;;9.95;8.60;;;;;;;25.65;51.18;101441.59;5024432;27;96738;-69
2022/07/22 06:32:07;;;;;;;10.88;8.15;;;;;;;26.05;50.35;101435.34;5024283;28;96772;-69
2022/07/22 06:34:34;;;;;;;8.15;7.30;;;;;;;26.44;49.37;101436.34;5025465;27;99720;-69
2022/07/22 06:37:00;;;;;;;9.57;8.65;;;;;;;26.29;49.33;101441.28;5022027;27;99159;-69
2022/07/22 06:39:27;;;;;;;8.88;7.78;;;;;;;26.54;49.21;101432.63;5023237;27;97234;-70
2022/07/22 06:41:53;;;;;;;9.48;7.95;;;;;;;26.55;48.76;101436.19;5029271;27;96956;-70
2022/07/22 06:44:20;;;;;;;9.40;8.13;;;;;;;26.36;49.04;101441.59;5024213;27;98859;-70
2022/07/22 06:46:47;;;;;;;8.45;7.60;;;;;;;26.72;48.56;101437.34;5023682;27;98872;-70
2022/07/22 06:49:14;;;;;;;13.90;8.43;;;;;;;26.34;49.26;101436.28;5021625;27;98401;-70
2022/07/22 06:51:40;;;;;;;11.70;8.30;;;;;;;25.85;50.88;101438.97;5024870;27;97175;-69
2022/07/22 06:54:07;;;;;;;8.93;8.02;;;;;;;25.84;50.64;101439.97;5025035;27;99631;-69
2022/07/22 06:56:33;;;;;;;10.48;7.68;;;;;;;26.21;50.00;101438.38;5019036;27;97557;-70
2022/07/22 06:58:59;;;;;;;10.10;7.47;;;;;;;26.12;50.36;101445.47;5026454;27;98258;-71
2022/07/22 07:01:26;;;;;;;12.88;8.25;;;;;;;26.37;49.05;101446.00;5024213;27;98185;-71
2022/07/22 07:03:54;;;;;;;8.88;7.85;;;;;;;26.43;49.36;101443.59;5016304;27;97786;-71
2022/07/22 07:06:21;;;;;;;8.50;7.57;;;;;;;27.30;47.33;101435.50;5024018;27;101501;-72
2022/07/22 07:08:47;;;;;;;7.25;6.65;;;;;;;27.84;46.24;101440.19;5022220;27;96837;-71
2022/07/22 07:11:13;;;;;;;7.82;6.97;;;;;;;28.02;45.32;101438.44;5026642;27;97944;-71
2022/07/22 07:13:40;;;;;;;8.32;7.28;;;;;;;27.77;45.45;101441.81;5023985;28;99227;-71
2022/07/22 07:16:07;;;;;;;8.93;8.10;;;;;;;27.50;45.88;101441.75;5023635;27;98855;-72
2022/07/22 07:18:33;;;;;;;9.88;8.00;;;;;;;27.27;46.43;101438.50;5024246;27;97314;-72
2022/07/22 07:21:01;;;;;;;8.48;7.65;;;;;;;27.22;46.72;101443.50;5025628;27;98454;-71
2022/07/22 07:23:28;;;;;;;11.32;7.20;;;;;;;27.60;45.96;101440.72;5020427;27;102024;-71
2022/07/22 07:25:54;;;;;;;9.38;7.07;;;;;;;27.74;45.55;101442.13;5024302;27;98915;-70
2022/07/22 07:31:37;;;;;;;7.95;6.75;;;;;;;27.03;46.61;101436.25;5025605;27;98841;-73
2022/07/22 07:34:03;;;;;;;9.55;6.95;;;;;;;27.13;46.79;101433.50;5022634;27;97046;-70
2022/07/22 07:36:30;;;;;;;6.70;6.00;;;;;;;27.00;47.67;101436.53;5025619;27;99029;-71
2022/07/22 07:38:56;;;;;;;8.73;6.45;;;;;;;26.97;47.74;101434.13;5024399;27;101880;-71
2022/07/22 07:41:23;;;;;;;10.50;6.80;;;;;;;26.92;48.12;101430.94;5024104;27;96947;-71
2022/07/22 07:43:50;;;;;;;8.23;6.70;;;;;;;27.38;46.72;101427.47;5025453;27;97161;-71
2022/07/22 07:46:16;;;;;;;7.45;5.50;;;;;;;27.41;46.86;101438.03;5023742;27;100914;-73
2022/07/22 07:48:45;;;;;;;8.43;5.82;;;;;;;27.02;47.56;101433.66;5023908;28;99031;-72
2022/07/22 07:51:11;;;;;;;6.43;5.80;;;;;;;27.56;46.45;101438.47;5025023;27;96988;-72
2022/07/22 07:53:37;;;;;;;6.82;6.05;;;;;;;27.09;47.38;101432.09;5025544;27;97295;-71
2022/07/22 07:56:04;;;;;;;7.45;5.57;;;;;;;27.27;46.63;101436.63;5020024;28;99501;-72
2022/07/22 07:58:31;;;;;;;5.55;5.03;;;;;;;27.67;46.21;101441.00;5023653;27;102516;-71
2022/07/22 08:00:57;;;;;;;9.48;5.60;;;;;;;27.82;45.89;101435.94;5023433;27;99282;-71
2022/07/22 08:03:24;;;;;;;5.63;4.93;;;;;;;28.44;44.02;101432.47;5006525;27;98300;-73
2022/07/22 08:05:51;;;;;;;7.70;4.88;;;;;;;28.52;43.75;101435.28;5022152;27;98129;-73
2022/07/22 08:08:18;;;;;;;8.00;5.20;;;;;;;28.61;43.35;101436.22;5019585;28;101911;-72
2022/07/22 08:10:45;;;;;;;5.53;4.57;;;;;;;28.26;43.42;101432.44;5021270;27;96812;-73
2022/07/22 08:13:11;;;;;;;5.47;4.40;;;;;;;28.85;42.58;101436.50;5020196;27;97299;-72
2022/07/22 08:15:37;;;;;;;6.57;4.40;;;;;;;28.90;42.20;101428.72;5021925;27;98942;-73
2022/07/22 08:18:04;;;;;;;4.20;3.90;;;;;;;29.39;41.30;101435.44;5017019;27;98239;-72
2022/07/22 08:20:31;;;;;;;9.02;4.22;;;;;;;29.00;41.73;101442.25;5016885;27;97300;-73
2022/07/22 08:22:58;;;;;;;5.07;4.15;;;;;;;29.21;41.45;101442.75;5019040;27;96928;-74
2022/07/22 08:25:25;;;;;;;5.20;4.15;;;;;;;29.09;41.45;101439.41;5016169;27;100847;-73
2022/07/22 08:27:52;;;;;;;4.68;4.20;;;;;;;29.54;39.68;101436.53;5017199;27;99173;-73
2022/07/22 08:30:19;;;;;;;4.13;3.70;;;;;;;29.75;39.30;101435.28;5018787;27;98671;-72
2022/07/22 08:32:46;;;;;;;5.53;3.58;;;;;;;29.81;39.20;101434.66;5019036;27;97221;-71
2022/07/22 08:35:13;;;;;;;6.05;4.70;;;;;;;29.65;39.56;101430.84;5018516;27;97846;-71
2022/07/22 08:37:39;;;;;;;5.82;3.65;;;;;;;29.20;40.34;101446.50;5014783;27;97664;-70
2022/07/22 08:40:10;;;;;;;4.15;3.75;;;;;;;28.62;41.17;101448.81;5023261;27;97437;-70
2022/07/22 08:42:38;;;;;;;4.32;3.65;;;;;;;28.44;41.93;101449.63;5014105;28;97318;-71
2022/07/22 08:45:06;;;;;;;4.22;3.83;;;;;;;28.26;42.40;101445.19;5007085;28;99149;-71
2022/07/22 08:47:33;;;;;;;4.22;3.75;;;;;;;28.25;42.53;101444.31;5008373;28;98279;-71
2022/07/22 08:49:59;;;;;;;4.82;3.25;;;;;;;27.22;45.20;101448.94;5007213;28;98993;-70
2022/07/22 08:52:26;;;;;;;7.10;4.65;;;;;;;27.23;45.78;101453.34;5002867;28;97729;-73
2022/07/22 08:54:53;;;;;;;5.90;4.85;;;;;;;27.04;46.62;101448.81;5006032;28;102113;-72
2022/07/22 08:57:21;;;;;;;5.70;4.45;;;;;;;27.30;46.09;101455.34;5009258;28;99475;-72
2022/07/22 08:59:51;;;;;;;5.00;4.28;;;;;;;27.44;45.83;101456.72;5003995;28;97226;-71
2022/07/22 09:02:18;;;;;;;6.95;3.80;;;;;;;27.68;45.24;101451.72;5007229;28;97010;-71
2022/07/22 09:04:52;;;;;;;6.05;3.70;;;;;;;27.80;45.03;101457.81;4996680;28;99650;-70
2022/07/22 09:07:28;;;;;;;5.90;4.22;;;;;;;27.12;46.16;101454.34;5008758;28;99273;-70
2022/07/22 09:09:55;;;;;;;7.18;4.15;;;;;;;27.19;46.69;101460.91;5006476;28;97235;-71
2022/07/22 09:12:23;;;;;;;11.90;4.07;;;;;;;27.75;45.29;101452.84;5011164;28;97319;-71
2022/07/22 09:14:52;;;;;;;4.78;3.67;;;;;;;28.19;44.28;101449.50;5014363;28;101059;-71
2022/07/22 09:17:30;;;;;;;4.38;3.58;;;;;;;28.21;43.95;101452.94;5013511;28;97497;-71
2022/07/22 09:19:57;;;;;;;20.10;3.90;;;;;;;28.03;44.62;101458.28;5014297;28;97169;-71
2022/07/22 09:22:35;;;;;;;3.90;3.28;;;;;;;28.01;44.53;101455.72;5005126;28;97141;-71
2022/07/22 09:25:21;;;;;;;9.27;3.83;;;;;;;27.43;45.93;101460.47;5015871;28;100434;-70
2022/07/22 09:27:50;;;;;;;6.97;3.40;;;;;;;26.66;47.97;101456.88;5016567;28;101642;-71
2022/07/22 09:30:18;;;;;;;5.25;3.65;;;;;;;26.86;47.68;101464.03;5011535;28;97232;-70
2022/07/22 09:32:45;;;;;;;9.32;3.28;;;;;;;27.02;46.66;101458.94;5004665;28;97158;-71
2022/07/22 09:35:13;;;;;;;3.33;3.05;;;;;;;26.47;48.37;101463.13;5006393;28;98936;-69
2022/07/22 09:37:48;;;;;;;4.10;2.33;;;;;;;26.63;47.89;101466.16;5007923;28;98357;-70
2022/07/22 09:40:16;;;;;;;2.45;2.25;;;;;;;26.98;46.59;101463.78;5013151;28;96843;-73
2022/07/22 09:42:50;;;;;;;2.40;2.20;;;;;;;27.41;45.62;101469.75;5012705;28;96926;-70
2022/07/22 09:45:17;;;;;;;2.13;1.83;;;;;;;27.59;45.02;101462.59;5011688;28;97686;-70
2022/07/22 09:47:45;;;;;;;2.15;1.92;;;;;;;28.07;44.25;101463.28;5008584;28;97533;-71
2022/07/22 09:50:19;;;;;;;3.45;2.00;;;;;;;28.15;43.98;101468.00;5011337;28;96866;-72
2022/07/22 09:52:47;;;;;;;2.15;1.98;;;;;;;28.76;42.78;101476.34;5010383;28;97311;-71
2022/07/22 09:55:15;;;;;;;2.33;2.13;;;;;;;29.04;42.61;101473.56;5010544;28;99185;-71
2022/07/22 09:57:42;;;;;;;5.32;1.92;;;;;;;29.05;42.26;101475.25;5011490;28;98932;-71
2022/07/22 10:00:11;;;;;;;3.45;1.73;;;;;;;29.08;42.56;101483.13;5010759;28;97131;-70
2022/07/22 10:02:45;;;;;;;3.33;2.10;;;;;;;28.86;42.51;101479.00;5013337;28;96791;-70
2022/07/22 10:05:13;;;;;;;4.18;2.10;;;;;;;28.83;42.62;101477.44;5000251;28;99059;-71
2022/07/22 10:07:42;;;;;;;2.60;2.05;;;;;;;28.78;42.58;101482.50;5008168;28;99463;-70
2022/07/22 10:10:10;;;;;;;4.03;1.83;;;;;;;29.31;41.77;101476.16;5006449;28;97786;-71
2022/07/22 10:12:38;;;;;;;2.33;2.13;;;;;;;28.89;42.43;101482.25;5008484;28;96826;-71
2022/07/22 10:15:07;;;;;;;2.40;1.90;;;;;;;29.26;41.48;101489.41;5005563;28;98981;-72
2022/07/22 10:17:37;;;;;;;2.45;2.28;;;;;;;29.01;42.11;101482.03;5009089;28;98858;-70
2022/07/22 10:20:05;;;;;;;2.35;2.15;;;;;;;29.52;41.36;101479.44;5009235;28;96854;-71
2022/07/22 10:22:56;;;;;;;4.57;2.30;;;;;;;30.28;39.30;101476.78;5012666;28;96982;-71
2022/07/22 10:25:24;;;;;;;6.55;2.70;;;;;;;29.47;40.87;101481.75;5010112;28;98961;-70
2022/07/22 10:27:54;;;;;;;5.18;2.05;;;;;;;28.64;42.40;101477.56;5011663;28;98195;-71
2022/07/22 10:30:23;;;;;;;4.55;2.22;;;;;;;28.35;42.82;101477.75;5003521;28;97372;-71
2022/07/22 10:33:06;;;;;;;2.60;2.50;;;;;;;28.59;43.02;101479.03;5006983;28;97217;-71
2022/07/22 10:35:33;;;;;;;3.65;2.35;;;;;;;28.99;42.62;101484.91;5002584;28;98902;-72
2022/07/22 10:38:02;;;;;;;3.35;2.35;;;;;;;29.08;41.98;101486.69;5009549;28;98762;-70
2022/07/22 10:40:30;;;;;;;2.55;2.35;;;;;;;29.46;40.97;101480.06;5005772;28;96845;-71
2022/07/22 10:43:07;;;;;;;3.05;2.50;;;;;;;29.25;41.41;101477.66;5010935;28;97286;-71
2022/07/22 10:45:35;;;;;;;4.43;2.70;;;;;;;29.13;42.14;101472.63;5003462;28;98962;-71
2022/07/22 10:48:07;;;;;;;3.25;2.95;;;;;;;29.03;42.04;101480.00;5007887;28;101608;-72
2022/07/22 10:50:42;;;;;;;2.40;2.20;;;;;;;29.07;41.90;101471.38;5007735;28;96821;-72
2022/07/22 10:53:10;;;;;;;3.67;2.40;;;;;;;28.49;43.21;101474.50;5005238;28;99448;-71
2022/07/22 10:55:38;;;;;;;2.28;2.10;;;;;;;28.45;43.09;101481.25;5007154;28;99328;-71
2022/07/22 10:58:34;;;;;;;2.13;2.03;;;;;;;29.03;42.52;101475.41;5008765;28;98821;-71
2022/07/22 11:01:03;;;;;;;5.07;2.30;;;;;;;28.80;42.85;101487.78;4999581;28;98233;-72
2022/07/22 11:03:32;;;;;;;2.35;2.20;;;;;;;29.04;42.64;101481.72;5002399;28;97252;-71
2022/07/22 11:06:14;;;;;;;3.97;2.47;;;;;;;29.17;41.57;101479.44;5001441;28;98929;-71
2022/07/22 11:08:40;;;;;;;2.70;2.17;;;;;;;29.52;41.40;101473.97;5003406;28;99006;-71
2022/07/22 11:11:07;;;;;;;3.85;2.50;;;;;;;29.75;40.90;101471.56;5007655;28;97207;-72
2022/07/22 11:13:35;;;;;;;2.83;2.67;;;;;;;29.01;41.92;101484.75;5001298;28;97120;-70
2022/07/22 11:16:15;;;;;;;3.15;2.83;;;;;;;29.58;41.01;101477.94;4995695;28;99128;-71
2022/07/22 11:18:50;;;;;;;3.00;2.78;;;;;;;28.46;43.19;101479.41;4993724;28;98881;-71
2022/07/22 11:21:19;;;;;;;2.90;2.70;;;;;;;28.89;42.37;101487.69;5000455;28;97505;-72
2022/07/22 11:23:49;;;;;;;4.00;3.17;;;;;;;29.00;42.21;101489.34;5000803;28;97496;-71
2022/07/22 11:26:18;;;;;;;5.38;3.40;;;;;;;29.43;41.47;101480.38;5011312;28;98867;-71
2022/07/22 11:28:45;;;;;;;4.90;3.38;;;;;;;29.22;42.10;101488.84;5006572;28;98904;-70